Time;durP1;ratioP1;P1;durP2;ratioP2;P2;SDS_P1;SDS_P2;PMS_P1;PMS_P2;Temp;Humidity;BMP_temperature;BMP_pressure;BME280_temperature;BME280_humidity;BME280_pressure;Samples;Min_cycle;Max_cycle;Signal;HPM_P1;HPM_P2
2023/11/20 00:02:34;;;;;;;12.75;11.05;;;;;;;1.14;100.00;97426.41;1225285;75;2916439;-64
2023/11/20 00:05:07;;;;;;;13.55;10.70;;;;;;;1.37;100.00;97422.81;1225397;75;2916181;-63
2023/11/20 00:07:40;;;;;;;16.90;12.85;;;;;;;1.12;100.00;97442.25;1225466;75;2922627;-63
2023/11/20 00:10:13;;;;;;;16.25;12.70;;;;;;;1.01;100.00;97437.06;1225061;75;2925189;-63
2023/11/20 00:12:46;;;;;;;15.30;12.05;;;;;;;1.32;100.00;97434.88;1225226;75;2927055;-64
2023/11/20 00:15:18;;;;;;;11.60;10.40;;;;;;;1.45;100.00;97438.44;1224464;75;2928797;-64
2023/11/20 00:17:55;;;;;;;14.65;9.95;;;;;;;1.39;100.00;97433.97;1225812;75;2917911;-63
2023/11/20 00:20:27;;;;;;;10.50;8.15;;;;;;;1.58;100.00;97433.13;1225084;75;2925001;-64
2023/11/20 00:23:00;;;;;;;12.75;9.45;;;;;;;1.33;100.00;97433.69;1225273;75;2921215;-63
2023/11/20 00:25:32;;;;;;;16.00;11.55;;;;;;;1.13;100.00;97422.97;1225065;75;2913570;-65
2023/11/20 00:28:05;;;;;;;11.95;10.15;;;;;;;1.17;100.00;97415.56;1224978;75;2925573;-63
2023/11/20 00:30:38;;;;;;;14.15;10.90;;;;;;;1.08;100.00;97423.44;1224059;75;2928149;-65
2023/11/20 00:33:13;;;;;;;13.80;10.30;;;;;;;1.01;100.00;97418.19;1225170;75;2921318;-63
2023/11/20 00:35:46;;;;;;;14.80;10.80;;;;;;;0.79;100.00;97437.50;1226044;75;2919892;-63
2023/11/20 00:38:18;;;;;;;14.75;11.15;;;;;;;0.77;100.00;97445.25;1225205;75;2915679;-65
2023/11/20 00:40:51;;;;;;;15.95;11.85;;;;;;;0.90;100.00;97436.53;1224827;75;2915930;-64
2023/11/20 00:43:23;;;;;;;13.15;9.50;;;;;;;1.09;100.00;97443.09;1224975;75;2911842;-65
2023/11/20 00:45:56;;;;;;;10.65;8.45;;;;;;;1.27;100.00;97436.16;1225673;75;2921471;-63
2023/11/20 00:48:31;;;;;;;8.75;7.15;;;;;;;1.24;100.00;97428.88;1224460;75;2921400;-63
2023/11/20 00:51:04;;;;;;;8.65;6.70;;;;;;;1.26;100.00;97426.53;1224371;75;2922611;-63
2023/11/20 00:53:36;;;;;;;10.65;8.50;;;;;;;1.08;100.00;97434.22;1225190;75;2926739;-64
2023/11/20 00:56:10;;;;;;;11.85;9.60;;;;;;;0.97;100.00;97437.16;1224973;75;2914903;-64
2023/11/20 00:58:43;;;;;;;10.55;8.65;;;;;;;1.10;100.00;97441.91;1225720;75;2914653;-65
2023/11/20 01:01:15;;;;;;;10.90;8.20;;;;;;;1.17;100.00;97429.03;1225797;75;2920242;-64
2023/11/20 01:03:51;;;;;;;11.65;8.95;;;;;;;1.21;100.00;97437.81;1224787;75;2913761;-65
2023/11/20 01:06:21;;;;;;;12.20;9.00;;;;;;;0.87;100.00;97443.53;1224848;75;2911888;-62
2023/11/20 01:08:53;;;;;;;12.30;8.70;;;;;;;1.07;100.00;97443.50;1225653;75;2851560;-61
2023/11/20 01:11:26;;;;;;;11.20;7.35;;;;;;;1.17;100.00;97431.72;1225313;75;2925020;-63
2023/11/20 01:14:01;;;;;;;9.35;6.95;;;;;;;1.22;100.00;97425.84;1224466;75;2918577;-64
2023/11/20 01:16:34;;;;;;;8.15;6.35;;;;;;;1.12;100.00;97426.84;1224924;75;2920592;-63
2023/11/20 01:19:09;;;;;;;7.45;6.60;;;;;;;1.16;100.00;97422.13;1222666;75;2957536;-65
2023/11/20 01:21:43;;;;;;;12.10;8.95;;;;;;;1.11;100.00;97409.16;1225534;75;2912986;-64
2023/11/20 01:24:15;;;;;;;10.70;8.00;;;;;;;1.20;100.00;97412.03;1225616;75;2921737;-64
2023/11/20 01:26:49;;;;;;;9.75;7.15;;;;;;;1.43;100.00;97419.22;1224844;75;2923195;-64
2023/11/20 01:29:21;;;;;;;7.40;5.95;;;;;;;1.41;100.00;97423.50;1225019;75;2912255;-63
2023/11/20 01:31:54;;;;;;;7.80;6.00;;;;;;;1.53;100.00;97435.59;1224263;75;2914289;-63
2023/11/20 01:34:29;;;;;;;5.85;4.80;;;;;;;1.54;100.00;97437.09;1224355;75;2921906;-63
2023/11/20 01:37:02;;;;;;;6.95;5.55;;;;;;;1.40;100.00;97435.50;1224598;75;2914087;-64
2023/11/20 01:39:34;;;;;;;11.40;8.85;;;;;;;1.19;100.00;97437.47;1224362;75;2915020;-63
2023/11/20 01:42:08;;;;;;;10.85;8.05;;;;;;;1.37;100.00;97447.09;1225084;75;2905748;-63
2023/11/20 01:44:41;;;;;;;12.70;10.60;;;;;;;1.26;100.00;97453.50;1224014;75;2918533;-62
2023/11/20 01:47:15;;;;;;;10.45;8.75;;;;;;;1.36;100.00;97446.34;1224065;75;2914643;-62
2023/11/20 01:49:51;;;;;;;9.85;7.55;;;;;;;1.47;100.00;97435.34;1223884;75;2919177;-62
2023/11/20 01:52:24;;;;;;;9.15;7.65;;;;;;;1.46;100.00;97429.16;1224284;75;2913880;-63
2023/11/20 01:54:57;;;;;;;8.95;6.75;;;;;;;1.52;100.00;97431.38;1224161;75;2920511;-65
2023/11/20 01:57:30;;;;;;;9.75;7.55;;;;;;;1.26;100.00;97455.44;1223493;75;2927382;-64
2023/11/20 02:00:05;;;;;;;10.95;9.25;;;;;;;0.92;100.00;97453.06;1223046;75;2917387;-64
2023/11/20 02:02:43;;;;;;;10.90;7.85;;;;;;;1.26;100.00;97464.28;1223719;75;2923078;-64
2023/11/20 02:05:19;;;;;;;13.60;10.15;;;;;;;1.03;100.00;97458.97;1224451;75;2913495;-64
2023/11/20 02:07:52;;;;;;;11.95;8.45;;;;;;;1.18;100.00;97457.53;1224393;75;2922435;-64
2023/11/20 02:10:24;;;;;;;8.85;7.45;;;;;;;1.33;100.00;97460.66;1224458;67;2914575;-63
2023/11/20 02:12:58;;;;;;;9.40;8.15;;;;;;;1.05;100.00;97465.47;1224815;75;2913424;-63
2023/11/20 02:15:31;;;;;;;9.75;7.50;;;;;;;1.10;100.00;97448.06;1224013;75;2925005;-64
2023/11/20 02:18:03;;;;;;;7.60;6.70;;;;;;;1.18;100.00;97449.44;1224331;75;2924698;-63
2023/11/20 02:20:39;;;;;;;8.80;6.30;;;;;;;1.26;100.00;97455.44;1224163;75;2924906;-63
2023/11/20 02:23:11;;;;;;;7.65;6.00;;;;;;;1.32;100.00;97445.66;1224928;75;2919702;-62
2023/11/20 02:25:44;;;;;;;6.00;5.00;;;;;;;1.32;100.00;97431.41;1224379;75;2923837;-64
2023/11/20 02:28:29;;;;;;;6.30;5.20;;;;;;;1.22;100.00;97441.25;1224367;75;2922851;-63
2023/11/20 02:31:04;;;;;;;7.30;5.50;;;;;;;0.96;100.00;97442.94;1224673;75;2924114;-61
2023/11/20 02:33:38;;;;;;;10.00;7.80;;;;;;;0.88;100.00;97460.44;1224666;75;2924611;-63
2023/11/20 02:36:12;;;;;;;8.20;6.75;;;;;;;1.08;100.00;97447.69;1224735;75;2927294;-64
2023/11/20 02:38:45;;;;;;;7.90;6.10;;;;;;;1.20;100.00;97449.78;1224427;75;2924823;-65
2023/11/20 02:41:18;;;;;;;6.70;5.60;;;;;;;1.27;100.00;97441.53;1223661;75;2924003;-63
2023/11/20 02:43:51;;;;;;;11.10;8.05;;;;;;;0.77;100.00;97447.97;1224216;75;2922763;-64
2023/11/20 02:46:26;;;;;;;11.90;8.95;;;;;;;0.85;100.00;97443.19;1223993;75;2918667;-61
2023/11/20 02:48:59;;;;;;;11.30;8.60;;;;;;;0.75;100.00;97436.84;1223726;75;2925770;-64
2023/11/20 02:51:31;;;;;;;14.10;10.65;;;;;;;0.62;100.00;97450.13;1224112;75;2915540;-65
2023/11/20 02:54:04;;;;;;;14.55;10.95;;;;;;;0.62;100.00;97431.28;1222980;75;2924402;-62
2023/11/20 02:56:37;;;;;;;13.90;10.65;;;;;;;0.49;100.00;97435.03;1223975;75;2919341;-63
2023/11/20 02:59:09;;;;;;;14.95;11.60;;;;;;;0.36;100.00;97427.56;1223692;75;2924885;-61
2023/11/20 03:01:49;;;;;;;14.05;10.65;;;;;;;0.68;100.00;97417.34;1224321;75;2934033;-63
2023/11/20 03:04:22;;;;;;;12.20;8.75;;;;;;;0.96;100.00;97410.59;1223121;75;2937278;-62
2023/11/20 03:06:55;;;;;;;9.75;7.70;;;;;;;0.95;100.00;97411.81;1224950;75;2917541;-63
2023/11/20 03:09:27;;;;;;;10.60;8.95;;;;;;;0.79;100.00;97415.94;1223863;75;2941820;-65
2023/11/20 03:12:00;;;;;;;10.50;7.60;;;;;;;0.97;100.00;97429.06;1224337;75;2928524;-65
2023/11/20 03:14:33;;;;;;;13.85;9.35;;;;;;;1.05;100.00;97430.44;1225088;75;2921660;-65
2023/11/20 03:17:08;;;;;;;12.70;9.05;;;;;;;1.00;100.00;97436.31;1224480;75;2925156;-63
2023/11/20 03:19:41;;;;;;;12.65;9.35;;;;;;;0.90;100.00;97417.69;1223709;75;2923881;-66
2023/11/20 03:22:14;;;;;;;14.85;10.35;;;;;;;0.99;100.00;97423.28;1224375;75;2927374;-64
2023/11/20 03:24:46;;;;;;;13.45;10.15;;;;;;;0.98;100.00;97427.88;1224824;75;2918114;-65
2023/11/20 03:27:19;;;;;;;12.55;9.30;;;;;;;1.21;100.00;97455.94;1223858;75;2928704;-63
2023/11/20 03:29:51;;;;;;;12.60;9.85;;;;;;;0.88;100.00;97446.97;1222839;75;2926890;-63
2023/11/20 03:32:27;;;;;;;15.70;11.15;;;;;;;0.70;100.00;97448.09;1223468;75;2932447;-66
2023/11/20 03:34:59;;;;;;;12.80;9.35;;;;;;;0.97;100.00;97445.25;1223047;75;2922175;-62
2023/11/20 03:37:32;;;;;;;16.80;11.40;;;;;;;0.68;100.00;97418.09;1223297;75;2930195;-65
2023/11/20 03:40:05;;;;;;;14.80;10.40;;;;;;;0.84;100.00;97428.16;1223941;75;2923147;-63
2023/11/20 03:42:37;;;;;;;14.00;9.50;;;;;;;1.06;100.00;97415.03;1223140;75;2930982;-64
2023/11/20 03:45:11;;;;;;;10.25;8.05;;;;;;;1.12;100.00;97421.44;1223428;75;2919581;-64
2023/11/20 03:47:46;;;;;;;12.30;9.25;;;;;;;0.95;100.00;97412.56;1223595;75;2919027;-63
2023/11/20 03:50:19;;;;;;;11.60;8.90;;;;;;;1.06;100.00;97423.13;1223230;75;2927612;-62
2023/11/20 03:52:52;;;;;;;10.45;8.70;;;;;;;0.98;100.00;97419.78;1223436;75;2923483;-64
2023/11/20 03:55:24;;;;;;;11.60;8.85;;;;;;;1.04;100.00;97420.84;1223853;75;2944210;-62
2023/11/20 03:57:57;;;;;;;12.85;8.60;;;;;;;1.10;100.00;97420.34;1224169;75;2924513;-63
2023/11/20 04:00:29;;;;;;;10.75;8.00;;;;;;;1.11;100.00;97419.94;1222892;75;2922601;-64
2023/11/20 04:03:05;;;;;;;12.00;7.70;;;;;;;1.07;100.00;97419.25;1222780;75;2927332;-66
2023/11/20 04:05:37;;;;;;;8.40;6.30;;;;;;;1.15;100.00;97426.00;1222359;75;2927417;-65
2023/11/20 04:08:10;;;;;;;12.60;7.85;;;;;;;0.88;100.00;97425.41;1223219;75;2923556;-63
2023/11/20 04:10:43;;;;;;;10.10;7.35;;;;;;;1.10;100.00;97439.97;1222297;75;2921963;-64
2023/11/20 04:13:15;;;;;;;9.50;7.35;;;;;;;1.18;100.00;97437.88;1223307;75;2922050;-63
2023/11/20 04:15:48;;;;;;;9.10;7.25;;;;;;;1.10;100.00;97428.44;1219803;75;2957443;-64
2023/11/20 04:18:23;;;;;;;9.10;6.65;;;;;;;1.09;100.00;97419.59;1222650;75;2931658;-62
2023/11/20 04:20:56;;;;;;;5.95;4.80;;;;;;;1.18;100.00;97438.66;1223865;75;2925179;-63
2023/11/20 04:23:29;;;;;;;9.70;6.95;;;;;;;0.90;100.00;97429.22;1222948;75;2927087;-64
2023/11/20 04:26:02;;;;;;;12.95;7.60;;;;;;;0.73;100.00;97439.19;1223660;75;2920496;-61
2023/11/20 04:28:35;;;;;;;11.65;8.45;;;;;;;0.76;100.00;97421.41;1224955;75;2845597;-64
2023/11/20 04:31:08;;;;;;;10.20;7.65;;;;;;;0.80;100.00;97412.09;1222545;75;2923397;-64
2023/11/20 04:33:43;;;;;;;8.85;6.40;;;;;;;1.02;100.00;97419.75;1222803;75;2926243;-65
2023/11/20 04:36:16;;;;;;;8.75;7.15;;;;;;;0.96;100.00;97418.69;1223437;75;2936622;-63
2023/11/20 04:38:49;;;;;;;10.25;8.00;;;;;;;0.79;100.00;97431.34;1222508;75;2934841;-65
2023/11/20 04:41:22;;;;;;;15.05;9.25;;;;;;;0.81;100.00;97432.47;1223249;75;2940657;-62
2023/11/20 04:43:54;;;;;;;10.05;8.15;;;;;;;1.00;100.00;97427.47;1223705;75;2927110;-63
2023/11/20 04:46:27;;;;;;;10.85;8.15;;;;;;;0.87;100.00;97416.59;1223684;75;2922989;-64
2023/11/20 04:49:03;;;;;;;10.60;8.45;;;;;;;0.94;100.00;97424.53;1223551;75;2925917;-63
2023/11/20 04:51:35;;;;;;;10.35;8.10;;;;;;;0.79;100.00;97415.94;1224207;75;2920960;-65
2023/11/20 04:54:08;;;;;;;12.90;9.25;;;;;;;0.65;100.00;97413.56;1222445;75;2939503;-64
2023/11/20 04:56:41;;;;;;;11.05;7.60;;;;;;;0.89;100.00;97425.00;1223854;75;2925942;-64
2023/11/20 04:59:14;;;;;;;8.10;6.15;;;;;;;0.94;100.00;97421.03;1224098;75;2925115;-62
2023/11/20 05:01:46;;;;;;;7.55;5.75;;;;;;;0.93;100.00;97414.16;1224579;75;2922696;-64
2023/11/20 05:04:22;;;;;;;8.65;6.00;;;;;;;0.99;100.00;97415.19;1225019;75;2922921;-65
2023/11/20 05:06:54;;;;;;;7.90;5.45;;;;;;;1.10;100.00;97409.56;1223196;75;2920829;-63
2023/11/20 05:09:27;;;;;;;11.50;7.30;;;;;;;0.91;100.00;97403.78;1224757;75;2921131;-65
2023/11/20 05:12:00;;;;;;;11.30;7.10;;;;;;;1.19;100.00;97399.72;1223410;75;2912740;-64
2023/11/20 05:14:33;;;;;;;7.05;5.30;;;;;;;1.14;100.00;97411.00;1223867;75;2920601;-63
2023/11/20 05:17:06;;;;;;;7.30;6.25;;;;;;;0.97;100.00;97414.84;1222812;75;2927452;-65
2023/11/20 05:19:41;;;;;;;9.60;7.45;;;;;;;1.06;100.00;97406.94;1223635;75;2930589;-65
2023/11/20 05:22:14;;;;;;;31.35;18.50;;;;;;;0.57;100.00;97415.59;1223709;75;2919309;-64
2023/11/20 05:24:46;;;;;;;28.35;16.95;;;;;;;0.81;100.00;97413.59;1224247;75;2923423;-64
2023/11/20 05:27:19;;;;;;;26.40;16.05;;;;;;;1.04;100.00;97403.91;1223720;75;2928112;-63
2023/11/20 05:29:52;;;;;;;25.15;15.30;;;;;;;1.00;100.00;97406.66;1223467;75;2923919;-66
2023/11/20 05:32:25;;;;;;;22.95;14.75;;;;;;;1.00;100.00;97393.19;1223860;75;2931874;-63
2023/11/20 05:35:00;;;;;;;38.65;24.85;;;;;;;0.94;100.00;97421.03;1223690;75;2921150;-64
2023/11/20 05:37:33;;;;;;;27.10;17.75;;;;;;;0.98;100.00;97409.00;1223100;75;2918819;-64
2023/11/20 05:40:06;;;;;;;20.40;13.55;;;;;;;0.93;100.00;97411.44;1224111;75;2921412;-63
2023/11/20 05:42:40;;;;;;;21.00;13.15;;;;;;;0.88;100.00;97412.69;1220890;75;2973002;-63
2023/11/20 05:45:13;;;;;;;26.40;15.55;;;;;;;0.31;100.00;97414.56;1224177;75;2933803;-66
2023/11/20 05:47:46;;;;;;;23.45;14.30;;;;;;;0.53;100.00;97396.09;1223841;75;2927675;-65
2023/11/20 05:50:21;;;;;;;21.50;13.45;;;;;;;0.59;100.00;97393.66;1223271;75;2931274;-65
2023/11/20 05:52:53;;;;;;;16.65;11.25;;;;;;;0.61;100.00;97399.41;1224076;75;2923739;-63
2023/11/20 05:55:29;;;;;;;14.15;9.85;;;;;;;0.90;100.00;97399.56;1223117;75;2930828;-65
2023/11/20 05:58:02;;;;;;;14.35;9.50;;;;;;;0.76;100.00;97392.53;1223544;75;2927979;-63
2023/11/20 06:00:36;;;;;;;16.20;8.90;;;;;;;0.70;100.00;97402.28;1223563;75;2939974;-62
2023/11/20 06:03:08;;;;;;;15.25;9.60;;;;;;;0.75;100.00;97403.75;1223415;75;2921920;-65
2023/11/20 06:05:44;;;;;;;13.85;9.20;;;;;;;0.56;100.00;97391.81;1223935;75;2918920;-63
2023/11/20 06:08:17;;;;;;;13.55;10.00;;;;;;;0.57;100.00;97387.94;1224051;75;2925469;-64
2023/11/20 06:10:49;;;;;;;12.95;9.60;;;;;;;0.64;100.00;97395.88;1223996;75;2932397;-63
2023/11/20 06:13:22;;;;;;;12.05;8.40;;;;;;;0.63;100.00;97394.34;1224436;75;2921180;-64
2023/11/20 06:15:54;;;;;;;14.30;9.20;;;;;;;0.45;100.00;97396.63;1224161;75;2927816;-64
2023/11/20 06:18:27;;;;;;;16.75;10.60;;;;;;;0.57;100.00;97404.84;1223060;75;2924941;-63
2023/11/20 06:21:03;;;;;;;10.85;8.25;;;;;;;0.77;100.00;97399.47;1223232;75;2923150;-65
2023/11/20 06:23:36;;;;;;;11.60;7.80;;;;;;;0.66;100.00;97406.22;1223849;75;2936206;-62
2023/11/20 06:26:09;;;;;;;9.15;7.05;;;;;;;0.66;100.00;97403.53;1223194;75;2923615;-63
2023/11/20 06:28:43;;;;;;;11.00;8.10;;;;;;;0.61;100.00;97416.31;1222142;75;3079690;-65
2023/11/20 06:31:16;;;;;;;11.30;7.85;;;;;;;0.74;100.00;97413.00;1223876;75;2919774;-63
2023/11/20 06:33:48;;;;;;;10.20;7.30;;;;;;;0.87;100.00;97408.50;1222710;75;2922751;-64
2023/11/20 06:36:24;;;;;;;10.10;7.70;;;;;;;0.76;100.00;97406.00;1223966;75;2930405;-62
2023/11/20 06:38:57;;;;;;;12.90;8.40;;;;;;;0.78;100.00;97419.06;1224004;75;2925220;-63
2023/11/20 06:41:30;;;;;;;11.55;7.55;;;;;;;0.77;100.00;97417.53;1223302;75;2945846;-62
2023/11/20 06:44:04;;;;;;;11.90;8.45;;;;;;;0.87;100.00;97418.50;1223539;75;2931158;-63
2023/11/20 06:46:37;;;;;;;9.50;7.10;;;;;;;0.93;100.00;97430.31;1222979;75;2929125;-63
2023/11/20 06:49:09;;;;;;;9.20;7.35;;;;;;;1.18;100.00;97424.38;1222800;75;2922429;-61
2023/11/20 06:51:49;;;;;;;9.55;6.80;;;;;;;1.00;100.00;97435.56;1223640;75;2922198;-64
2023/11/20 06:54:26;;;;;;;9.35;6.95;;;;;;;0.96;100.00;97430.25;1222859;75;2922979;-63
2023/11/20 06:56:58;;;;;;;9.15;6.40;;;;;;;1.40;100.00;97435.50;1222707;75;2930713;-63
2023/11/20 06:59:32;;;;;;;6.95;5.45;;;;;;;2.19;100.00;97420.88;1223925;75;2922234;-64
2023/11/20 07:02:05;;;;;;;6.00;4.95;;;;;;;2.10;100.00;97426.88;1223221;75;2927210;-64
2023/11/20 07:04:38;;;;;;;5.85;4.40;;;;;;;2.55;100.00;97434.22;1223013;75;2921725;-63
2023/11/20 07:07:14;;;;;;;5.95;4.70;;;;;;;5.68;100.00;97432.88;1220174;75;2924260;-62
2023/11/20 07:09:46;;;;;;;5.80;4.75;;;;;;;8.07;88.72;97418.91;1223114;75;2918261;-64
2023/11/20 07:12:19;;;;;;;6.05;4.50;;;;;;;8.20;82.46;97418.69;1222580;75;2924416;-63
2023/11/20 07:14:52;;;;;;;5.10;4.30;;;;;;;8.82;77.21;97417.13;1224059;75;2918876;-64
2023/11/20 07:17:24;;;;;;;5.65;4.20;;;;;;;6.32;93.78;97434.97;1223572;75;2923661;-65
2023/11/20 07:19:58;;;;;;;6.85;4.35;;;;;;;5.49;100.00;97437.50;1223105;75;2925923;-62
2023/11/20 07:22:34;;;;;;;5.00;3.70;;;;;;;5.47;100.00;97437.19;1223642;75;2916784;-63
2023/11/20 07:25:07;;;;;;;3.55;3.10;;;;;;;5.01;100.00;97431.53;1223332;75;2924321;-66
2023/11/20 07:27:40;;;;;;;3.70;3.00;;;;;;;5.06;100.00;97433.66;1222918;75;2946535;-66
2023/11/20 07:30:14;;;;;;;12.00;7.10;;;;;;;4.94;100.00;97427.13;1222934;75;2924355;-66
2023/11/20 07:32:47;;;;;;;9.90;7.05;;;;;;;5.21;100.00;97442.03;1222339;75;2930346;-64
2023/11/20 07:35:19;;;;;;;6.55;5.00;;;;;;;7.02;95.28;97438.59;1223241;75;2936094;-63
2023/11/20 07:37:54;;;;;;;8.25;6.00;;;;;;;8.03;83.83;97436.66;1224247;75;2922712;-63
2023/11/20 07:40:27;;;;;;;6.75;6.05;;;;;;;9.94;76.21;97441.97;1223818;75;2926342;-62
2023/11/20 07:43:00;;;;;;;6.25;5.05;;;;;;;10.24;73.40;97462.50;1221870;75;2928013;-64
2023/11/20 07:45:34;;;;;;;7.50;5.70;;;;;;;9.57;73.69;97453.34;1223676;75;2928934;-62
2023/11/20 07:48:07;;;;;;;5.80;4.75;;;;;;;10.29;70.34;97444.69;1221227;75;2923893;-60
2023/11/20 07:50:43;;;;;;;6.30;4.60;;;;;;;11.25;66.49;97432.72;1070585;67;10244778;-64
2023/11/20 07:53:30;;;;;;;9.85;4.75;;;;;;;11.65;65.38;97436.53;1194116;75;5083584;-63
2023/11/20 07:56:03;;;;;;;11.05;5.55;;;;;;;9.08;73.80;97438.44;1189758;75;5509134;-66
2023/11/20 07:58:36;;;;;;;8.50;5.05;;;;;;;9.11;74.24;97457.34;1194673;75;5209396;-63
2023/11/20 08:01:10;;;;;;;8.90;4.45;;;;;;;9.49;74.29;97444.81;1158640;75;8090986;-65
2023/11/20 08:03:47;;;;;;;5.85;4.05;;;;;;;11.34;68.81;97442.78;1154377;75;7034556;-65
2023/11/20 08:06:21;;;;;;;8.30;4.60;;;;;;;10.88;69.10;97446.34;1049658;75;10209501;-66
2023/11/20 08:08:56;;;;;;;5.55;2.90;;;;;;;11.70;65.87;97432.31;1222253;75;2925140;-67
2023/11/20 08:11:29;;;;;;;5.20;3.50;;;;;;;10.94;68.04;97438.19;1191062;75;5331554;-63
2023/11/20 08:14:02;;;;;;;6.85;4.65;;;;;;;10.16;70.24;97438.78;1223696;75;2923886;-63
2023/11/20 08:16:34;;;;;;;5.20;3.75;;;;;;;10.42;69.62;97447.09;1223272;75;2925127;-65
2023/11/20 08:19:07;;;;;;;5.50;3.45;;;;;;;10.24;71.74;97450.81;1224318;75;2922736;-63
2023/11/20 08:21:40;;;;;;;6.60;3.85;;;;;;;10.55;70.80;97444.75;1221763;75;2929182;-67
2023/11/20 08:24:15;;;;;;;6.05;3.95;;;;;;;10.86;70.10;97441.34;1224437;75;2929387;-65
2023/11/20 08:26:48;;;;;;;5.65;3.70;;;;;;;11.49;68.69;97429.69;1220435;75;2919843;-64
2023/11/20 08:29:21;;;;;;;4.90;3.95;;;;;;;10.85;70.12;97437.13;1222882;75;2921603;-67
2023/11/20 08:31:54;;;;;;;6.60;3.55;;;;;;;11.27;71.41;97424.03;1223625;75;2920616;-63
2023/11/20 08:34:27;;;;;;;8.05;4.25;;;;;;;9.98;75.49;97426.88;1223147;75;2924142;-63
2023/11/20 08:37:01;;;;;;;6.50;3.95;;;;;;;11.57;72.29;97431.97;1221998;75;2940409;-65
2023/11/20 08:39:36;;;;;;;4.95;3.30;;;;;;;11.17;70.02;97420.72;1222866;75;2921366;-64
2023/11/20 08:42:09;;;;;;;5.45;3.45;;;;;;;11.66;70.36;97412.59;1223130;75;2917010;-63
2023/11/20 08:44:42;;;;;;;5.85;3.75;;;;;;;11.46;70.80;97414.22;1223479;75;2926895;-64
2023/11/20 08:47:14;;;;;;;6.85;4.60;;;;;;;10.87;74.31;97411.97;1224327;75;2923289;-64
2023/11/20 08:49:47;;;;;;;4.95;3.80;;;;;;;10.94;71.78;97419.00;1223309;75;2922423;-63
2023/11/20 08:52:20;;;;;;;6.75;4.50;;;;;;;10.44;74.48;97407.06;1222682;75;2921498;-63
2023/11/20 08:54:55;;;;;;;6.55;4.25;;;;;;;11.44;72.23;97402.25;1222893;75;2899880;-66
2023/11/20 08:57:28;;;;;;;7.65;4.75;;;;;;;11.64;68.94;97420.56;1223283;75;2917589;-64
2023/11/20 09:00:00;;;;;;;6.40;4.40;;;;;;;10.79;71.98;97410.91;1222827;75;2918080;-66
2023/11/20 09:02:33;;;;;;;4.85;3.95;;;;;;;12.38;68.08;97392.28;1223571;75;2918428;-67
2023/11/20 09:05:06;;;;;;;4.15;3.45;;;;;;;12.44;67.22;97403.28;1223434;75;2920602;-66
2023/11/20 09:07:39;;;;;;;5.70;4.15;;;;;;;12.19;67.91;97404.94;1221613;75;2924041;-66
2023/11/20 09:10:15;;;;;;;7.40;4.10;;;;;;;12.45;66.87;97402.78;1221827;75;2923696;-64
2023/11/20 09:12:49;;;;;;;5.95;3.55;;;;;;;13.62;63.63;97381.41;1223372;75;2923623;-63
2023/11/20 09:15:22;;;;;;;4.55;3.45;;;;;;;13.84;61.81;97384.13;1223266;75;2923838;-63
2023/11/20 09:17:54;;;;;;;6.80;3.85;;;;;;;14.23;60.77;97385.22;1223176;75;2924830;-65
2023/11/20 09:20:27;;;;;;;5.20;3.45;;;;;;;14.70;59.66;97375.00;1223205;75;2920774;-64
2023/11/20 09:23:00;;;;;;;5.55;3.45;;;;;;;14.74;59.27;97371.22;1223565;75;2922427;-64
2023/11/20 09:25:35;;;;;;;5.10;3.50;;;;;;;14.91;58.65;97363.59;1223027;75;2918750;-62
2023/11/20 09:28:08;;;;;;;10.00;3.75;;;;;;;15.52;55.77;97364.34;1222080;75;2920692;-65
2023/11/20 09:30:41;;;;;;;5.50;3.60;;;;;;;16.35;56.06;97353.63;1222476;75;2918510;-63
2023/11/20 09:33:14;;;;;;;4.55;3.30;;;;;;;15.28;56.44;97376.09;1223321;75;2918554;-63
2023/11/20 09:35:47;;;;;;;4.95;3.20;;;;;;;16.34;53.61;97365.94;1222745;75;2920189;-65
2023/11/20 09:38:19;;;;;;;4.45;2.70;;;;;;;16.29;53.43;97355.00;1222374;75;2923332;-66
2023/11/20 09:40:58;;;;;;;5.25;3.10;;;;;;;15.56;54.19;97353.75;1223116;75;2917260;-63
2023/11/20 09:43:33;;;;;;;;;;;;;;;17.32;52.04;97339.91;1223844;75;2924417;-64
2023/11/20 09:46:09;;;;;;;4.30;2.85;;;;;;;17.38;50.06;97342.56;1224011;75;2921324;-67
2023/11/20 09:48:45;;;;;;;3.70;2.70;;;;;;;16.88;52.48;97333.06;1223206;75;2917043;-65
2023/11/20 09:51:25;;;;;;;3.75;2.50;;;;;;;17.75;49.10;97336.09;1222653;75;2924266;-66
2023/11/20 09:53:59;;;;;;;4.40;2.60;;;;;;;18.34;47.69;97333.19;1222869;75;2921778;-66
2023/11/20 09:56:35;;;;;;;4.30;2.90;;;;;;;18.23;48.11;97336.19;1223502;75;2925326;-64
2023/11/20 09:59:07;;;;;;;5.85;3.10;;;;;;;18.23;47.68;97328.63;1222236;75;2922688;-65
2023/11/20 10:01:41;;;;;;;4.00;2.90;;;;;;;19.36;46.99;97337.88;1222002;75;2927534;-65
2023/11/20 10:04:19;;;;;;;5.55;3.45;;;;;;;18.36;47.75;97333.38;1223043;75;2924539;-65
2023/11/20 10:06:55;;;;;;;5.80;3.50;;;;;;;18.50;47.31;97323.00;1223241;75;2923104;-65
2023/11/20 10:09:28;;;;;;;3.80;2.75;;;;;;;20.02;45.02;97321.28;1222167;75;2924775;-66
2023/11/20 10:12:04;;;;;;;4.60;3.20;;;;;;;19.77;45.07;97314.13;1222720;75;2930199;-64
2023/11/20 10:14:37;;;;;;;5.35;3.60;;;;;;;20.18;44.61;97290.22;1223252;75;2925406;-64
2023/11/20 10:17:11;;;;;;;7.30;4.25;;;;;;;19.02;46.60;97298.38;1222773;75;2925954;-63
2023/11/20 10:19:44;;;;;;;5.30;3.60;;;;;;;20.56;44.20;97288.84;1222869;75;2924607;-63
2023/11/20 10:22:19;;;;;;;5.00;3.55;;;;;;;21.53;42.68;97274.06;1223947;75;2924315;-66
2023/11/20 10:24:52;;;;;;;4.70;3.00;;;;;;;21.60;42.23;97275.31;1223574;75;2915135;-65
2023/11/20 10:27:27;;;;;;;4.00;2.70;;;;;;;19.87;44.43;97272.69;1224358;75;2921721;-64
2023/11/20 10:30:00;;;;;;;4.35;2.75;;;;;;;20.14;45.34;97269.63;1223998;75;2924543;-66
2023/11/20 10:32:34;;;;;;;5.00;3.10;;;;;;;20.03;44.43;97264.41;1224063;75;2917089;-64
2023/11/20 10:35:17;;;;;;;4.65;3.20;;;;;;;21.77;42.88;97263.56;1223820;75;2928448;-65
2023/11/20 10:37:58;;;;;;;3.70;2.60;;;;;;;19.83;45.64;97258.41;1223960;75;2923694;-64
2023/11/20 10:40:31;;;;;;;4.55;3.20;;;;;;;19.39;45.40;97266.66;1224395;75;2935859;-63
2023/11/20 10:43:06;;;;;;;4.80;3.35;;;;;;;18.81;47.54;97256.78;1223850;75;2945976;-65
2023/11/20 10:45:39;;;;;;;4.65;3.25;;;;;;;18.51;48.11;97255.94;1223755;75;2923042;-64
2023/11/20 10:48:12;;;;;;;5.80;3.15;;;;;;;18.23;47.81;97259.34;1223930;75;2919617;-66
2023/11/20 10:50:51;;;;;;;5.75;3.50;;;;;;;16.85;50.25;97253.94;1224356;75;2945932;-64
2023/11/20 10:53:26;;;;;;;5.35;3.30;;;;;;;16.42;51.87;97252.81;1221620;75;2937759;-66
2023/11/20 10:56:02;;;;;;;6.05;3.10;;;;;;;16.33;52.01;97242.16;1223141;75;2923284;-65
2023/11/20 10:58:38;;;;;;;3.35;2.65;;;;;;;17.72;50.98;97251.31;1223992;75;2922500;-65
2023/11/20 11:01:11;;;;;;;5.85;2.90;;;;;;;17.00;50.97;97234.81;1224558;75;2922264;-64
2023/11/20 11:03:44;;;;;;;9.20;5.25;;;;;;;16.58;50.71;97226.97;1223879;75;2918704;-66
2023/11/20 11:06:22;;;;;;;9.60;3.40;;;;;;;16.87;50.45;97229.28;1224659;75;2918254;-65
2023/11/20 11:08:57;;;;;;;6.10;3.30;;;;;;;18.43;48.43;97230.19;1224225;75;2926704;-63
2023/11/20 11:11:31;;;;;;;3.95;2.80;;;;;;;19.69;45.42;97218.16;1222776;75;2924916;-65
2023/11/20 11:14:06;;;;;;;4.70;3.00;;;;;;;18.87;47.48;97218.56;1223892;75;2924662;-63
2023/11/20 11:16:46;;;;;;;5.25;3.10;;;;;;;20.09;46.20;97218.50;1223536;75;2925051;-68
2023/11/20 11:19:22;;;;;;;5.10;3.20;;;;;;;19.21;46.91;97218.41;1224238;75;2922208;-62
2023/11/20 11:22:03;;;;;;;6.00;3.45;;;;;;;19.86;44.64;97206.56;1224309;75;2923036;-63
2023/11/20 11:24:39;;;;;;;5.80;2.75;;;;;;;20.79;43.92;97199.88;1222686;75;2929807;-64
2023/11/20 11:27:22;;;;;;;5.30;3.05;;;;;;;19.16;45.80;97208.97;1185734;75;5655209;-63
2023/11/20 11:29:58;;;;;;;4.30;2.80;;;;;;;19.76;45.16;97211.88;1224201;75;2915670;-66
2023/11/20 11:33:10;;;;;;;4.60;2.95;;;;;;;20.43;44.15;97220.22;1224761;75;2934619;-65
2023/11/20 11:36:28;;;;;;;5.45;3.40;;;;;;;19.59;44.40;97209.56;1223021;75;2918774;-63
2023/11/20 11:39:18;;;;;;;3.25;2.40;;;;;;;20.62;42.98;97206.72;1225149;75;2921685;-65
2023/11/20 11:42:02;;;;;;;4.20;2.60;;;;;;;21.76;42.14;97207.09;1224799;75;2916412;-65
2023/11/20 11:44:50;;;;;;;5.35;3.15;;;;;;;22.02;41.59;97197.50;1224732;75;2922909;-66
2023/11/20 11:47:26;;;;;;;5.75;2.80;;;;;;;23.26;40.18;97203.69;1224436;75;2921499;-65